createdAt,value
2018-12-31T00:01:09.277Z,9.50
2018-12-31T00:06:13.262Z,9.30
2018-12-31T00:08:42.253Z,9.30
2018-12-31T00:11:11.235Z,9.10
2018-12-31T00:13:40.215Z,9.20
2018-12-31T00:16:09.204Z,9.30
2018-12-31T00:18:38.255Z,9.50
2018-12-31T00:21:07.235Z,9.60
2018-12-31T00:23:36.220Z,9.40
2018-12-31T00:26:05.190Z,9.40
2018-12-31T00:28:34.179Z,9.40
2018-12-31T00:31:03.158Z,9.50
2018-12-31T00:33:32.136Z,9.30
2018-12-31T00:36:01.101Z,9.30
2018-12-31T00:38:30.087Z,9.40
2018-12-31T00:40:59.122Z,9.50
2018-12-31T00:43:28.103Z,9.20
2018-12-31T00:45:57.062Z,9.30
2018-12-31T00:48:26.055Z,9.40
2018-12-31T00:50:55.007Z,9.60
2018-12-31T00:53:29.651Z,9.60
2018-12-31T00:55:58.654Z,9.70
2018-12-31T00:58:27.646Z,9.80
2018-12-31T01:00:56.619Z,9.60
2018-12-31T01:03:25.607Z,9.70
2018-12-31T01:05:54.574Z,9.70
2018-12-31T01:08:23.610Z,9.80
2018-12-31T01:10:52.661Z,9.60
2018-12-31T01:13:21.658Z,9.80
2018-12-31T01:15:50.665Z,9.80
2018-12-31T01:18:19.626Z,9.90
2018-12-31T01:20:48.671Z,10.00
2018-12-31T01:23:17.660Z,9.90
2018-12-31T01:25:46.651Z,9.90
2018-12-31T01:28:15.633Z,9.80
2018-12-31T01:30:44.670Z,9.60
2018-12-31T01:33:13.651Z,9.70
2018-12-31T01:35:42.635Z,9.80
2018-12-31T01:38:11.632Z,9.80
2018-12-31T01:40:40.591Z,9.60
2018-12-31T01:43:09.582Z,9.50
2018-12-31T01:45:38.547Z,9.70
2018-12-31T01:50:41.822Z,9.90
2018-12-31T01:53:10.871Z,9.90
2018-12-31T01:55:39.843Z,10.00
2018-12-31T01:58:08.831Z,10.00
2018-12-31T02:00:37.811Z,10.00
2018-12-31T02:03:06.785Z,10.10
2018-12-31T02:05:35.752Z,9.90
2018-12-31T02:08:04.809Z,10.10
2018-12-31T02:10:33.775Z,10.00
2018-12-31T02:13:02.759Z,10.00
2018-12-31T02:15:31.756Z,10.10
2018-12-31T02:18:00.719Z,10.10
2018-12-31T02:20:29.700Z,9.90
2018-12-31T02:22:58.680Z,10.00
2018-12-31T02:25:27.666Z,9.80
2018-12-31T02:27:56.632Z,9.90
2018-12-31T02:30:25.627Z,9.90
2018-12-31T02:32:54.601Z,10.10
2018-12-31T02:35:23.588Z,10.20
2018-12-31T02:37:52.563Z,9.90
2018-12-31T02:40:21.548Z,10.00
2018-12-31T02:42:50.582Z,10.20
2018-12-31T02:45:19.587Z,10.20
2018-12-31T02:47:48.552Z,10.00
2018-12-31T02:50:17.540Z,10.00
2018-12-31T02:52:46.511Z,10.20
2018-12-31T02:55:15.610Z,10.20
2018-12-31T02:57:44.583Z,10.10
2018-12-31T03:00:13.575Z,10.10
2018-12-31T03:02:42.543Z,10.20
2018-12-31T03:05:11.531Z,10.30
2018-12-31T03:07:40.499Z,10.30
2018-12-31T03:10:09.506Z,10.30
2018-12-31T03:12:38.470Z,10.30
2018-12-31T03:15:07.544Z,10.40
2018-12-31T03:17:36.510Z,10.40
2018-12-31T03:20:05.680Z,10.40
2018-12-31T03:22:34.802Z,10.40
2018-12-31T03:25:03.861Z,10.30
2018-12-31T03:27:32.826Z,10.40
2018-12-31T03:30:01.825Z,10.30
2018-12-31T03:32:30.808Z,10.30
2018-12-31T03:34:59.848Z,10.40
2018-12-31T03:37:28.819Z,10.40
2018-12-31T03:39:57.806Z,10.40
2018-12-31T03:42:26.777Z,10.40
2018-12-31T03:44:55.775Z,10.30
2018-12-31T03:47:24.748Z,10.30
2018-12-31T03:49:53.715Z,10.30
2018-12-31T03:52:22.699Z,10.10
2018-12-31T03:54:51.683Z,10.20
2018-12-31T03:57:20.665Z,10.10
2018-12-31T03:59:49.623Z,9.90
2018-12-31T04:02:18.706Z,10.20
2018-12-31T04:04:47.714Z,9.90
2018-12-31T04:07:16.700Z,10.10
2018-12-31T04:09:45.672Z,10.20
2018-12-31T04:12:14.648Z,10.20
2018-12-31T04:14:43.608Z,10.20
2018-12-31T04:17:12.574Z,10.30
2018-12-31T04:19:41.581Z,10.20
2018-12-31T04:22:10.542Z,10.30
2018-12-31T04:24:39.507Z,10.20
2018-12-31T04:27:08.525Z,10.10
2018-12-31T04:29:37.495Z,10.30
2018-12-31T04:32:06.451Z,10.30
2018-12-31T04:34:35.435Z,10.10
2018-12-31T04:37:04.468Z,10.20
2018-12-31T04:39:33.451Z,10.30
2018-12-31T04:42:02.435Z,10.30
2018-12-31T04:44:31.399Z,10.30
2018-12-31T04:47:00.368Z,10.30
2018-12-31T04:49:29.335Z,10.20
2018-12-31T04:51:58.312Z,10.40
2018-12-31T04:54:27.280Z,10.40
2018-12-31T04:56:56.339Z,10.30
2018-12-31T04:59:25.311Z,10.20
2018-12-31T05:01:54.291Z,10.00
2018-12-31T05:04:23.319Z,10.40
2018-12-31T05:06:52.319Z,10.30
2018-12-31T05:09:21.283Z,10.50
2018-12-31T05:11:50.264Z,10.50
2018-12-31T05:14:19.242Z,10.60
2018-12-31T05:16:48.208Z,10.70
2018-12-31T05:19:17.206Z,10.60
2018-12-31T05:21:46.179Z,10.60
2018-12-31T05:24:15.153Z,10.50
2018-12-31T05:26:44.131Z,10.30
2018-12-31T05:29:13.110Z,10.40
2018-12-31T05:31:42.084Z,10.30
2018-12-31T05:34:11.060Z,10.30
2018-12-31T05:36:40.037Z,10.40
2018-12-31T05:39:09.020Z,10.50
2018-12-31T05:41:37.978Z,10.50
2018-12-31T05:44:06.962Z,10.60
2018-12-31T05:46:35.926Z,10.50
2018-12-31T05:49:04.892Z,10.70
2018-12-31T05:51:33.880Z,10.70
2018-12-31T05:54:02.839Z,10.40
2018-12-31T05:56:31.816Z,10.50
2018-12-31T05:59:00.775Z,10.60
2018-12-31T06:01:29.757Z,10.50
2018-12-31T06:03:58.714Z,10.30
2018-12-31T06:06:27.675Z,10.40
2018-12-31T06:08:56.660Z,10.50
2018-12-31T06:11:25.632Z,10.40
2018-12-31T06:13:54.621Z,10.40
2018-12-31T06:16:23.587Z,10.40
2018-12-31T06:18:52.553Z,10.60
2018-12-31T06:21:21.531Z,10.70
2018-12-31T06:23:50.492Z,10.60
2018-12-31T06:26:19.471Z,10.50
2018-12-31T06:28:48.434Z,10.40
2018-12-31T06:31:17.419Z,10.50
2018-12-31T06:33:46.387Z,10.50
2018-12-31T06:36:15.358Z,10.40
2018-12-31T06:38:44.344Z,10.30
2018-12-31T06:41:13.322Z,10.40
2018-12-31T06:43:42.283Z,10.60
2018-12-31T06:46:11.263Z,10.70
2018-12-31T06:48:40.227Z,10.70
2018-12-31T06:51:09.261Z,10.70
2018-12-31T06:53:38.243Z,10.70
2018-12-31T06:56:07.222Z,10.50
2018-12-31T06:58:36.179Z,10.70
2018-12-31T07:01:05.169Z,10.80
2018-12-31T07:03:34.165Z,10.80
2018-12-31T07:06:03.132Z,10.90
2018-12-31T07:08:32.111Z,10.80
2018-12-31T07:11:01.074Z,10.70
2018-12-31T07:13:30.070Z,10.70
2018-12-31T07:15:59.046Z,10.70
2018-12-31T07:18:28.030Z,10.70
2018-12-31T07:20:57.002Z,10.70
2018-12-31T07:23:26.306Z,10.60
2018-12-31T07:25:55.274Z,10.60
2018-12-31T07:28:24.260Z,10.60
2018-12-31T07:30:53.253Z,10.50
2018-12-31T07:33:22.244Z,10.60
2018-12-31T07:35:51.215Z,10.60
2018-12-31T07:38:20.207Z,10.60
2018-12-31T07:40:49.189Z,10.70
2018-12-31T07:45:53.179Z,10.70
2018-12-31T07:48:22.169Z,10.70
2018-12-31T07:50:51.144Z,10.70
2018-12-31T07:55:54.419Z,10.60
2018-12-31T07:58:23.408Z,10.60
2018-12-31T08:00:52.377Z,10.70
2018-12-31T08:03:21.372Z,10.60
2018-12-31T08:05:50.334Z,10.70
2018-12-31T08:08:19.332Z,10.70
2018-12-31T08:10:48.339Z,10.70
2018-12-31T08:13:17.355Z,10.70
2018-12-31T08:15:46.357Z,10.70
2018-12-31T08:18:15.412Z,10.60
2018-12-31T08:20:44.409Z,10.70
2018-12-31T08:23:13.378Z,10.50
2018-12-31T08:25:42.355Z,10.50
2018-12-31T08:28:11.349Z,10.50
2018-12-31T08:30:40.327Z,10.40
2018-12-31T08:33:09.320Z,10.50
2018-12-31T08:35:38.294Z,10.10
2018-12-31T08:38:07.275Z,10.20
2018-12-31T08:40:36.234Z,10.10
2018-12-31T08:43:05.243Z,10.30
2018-12-31T08:45:34.212Z,10.50
2018-12-31T08:48:03.205Z,10.60
2018-12-31T08:50:32.190Z,10.70
2018-12-31T08:53:01.157Z,10.60
2018-12-31T08:58:05.162Z,10.40
2018-12-31T09:00:34.128Z,10.40
2018-12-31T09:03:03.115Z,10.50
2018-12-31T09:05:32.097Z,10.60
2018-12-31T09:08:01.131Z,10.90
2018-12-31T09:10:30.112Z,10.80
2018-12-31T09:12:59.091Z,10.80
2018-12-31T09:15:28.068Z,10.80
2018-12-31T09:17:57.050Z,11.10
2018-12-31T09:20:26.036Z,11.00
2018-12-31T09:22:55.079Z,10.80
2018-12-31T09:25:24.058Z,10.90
2018-12-31T09:27:53.040Z,10.90
2018-12-31T09:30:22.022Z,10.80
2018-12-31T09:32:51.007Z,10.90
2018-12-31T09:35:19.987Z,10.80
2018-12-31T09:37:48.960Z,10.70
2018-12-31T09:40:17.930Z,10.90
2018-12-31T09:42:46.914Z,10.70
2018-12-31T09:45:15.886Z,11.10
2018-12-31T09:47:44.891Z,11.30
2018-12-31T09:52:48.443Z,11.10
2018-12-31T09:55:17.447Z,11.20
2018-12-31T09:57:46.424Z,11.40
2018-12-31T10:00:15.410Z,11.20
2018-12-31T10:02:44.391Z,11.20
2018-12-31T10:05:13.375Z,11.30
2018-12-31T10:07:42.343Z,11.30
2018-12-31T10:10:11.335Z,11.50
2018-12-31T10:12:40.287Z,11.60
2018-12-31T10:15:09.355Z,11.50
2018-12-31T10:17:38.323Z,11.40
2018-12-31T10:20:07.543Z,11.50
2018-12-31T10:22:36.544Z,11.60
2018-12-31T10:25:05.591Z,11.70
2018-12-31T10:27:34.579Z,11.60
2018-12-31T10:30:03.790Z,11.70
2018-12-31T10:32:32.765Z,11.70
2018-12-31T10:37:36.391Z,11.40
2018-12-31T10:40:08.402Z,11.50
2018-12-31T10:42:37.879Z,11.50
2018-12-31T10:45:06.859Z,11.70
2018-12-31T10:47:35.832Z,11.50
2018-12-31T10:50:04.983Z,11.40
2018-12-31T10:52:33.932Z,11.60
2018-12-31T10:55:02.924Z,11.60
2018-12-31T10:57:31.885Z,11.60
2018-12-31T11:00:00.866Z,11.70
2018-12-31T11:02:29.838Z,11.50
2018-12-31T11:04:58.812Z,11.50
2018-12-31T11:07:27.807Z,11.60
2018-12-31T11:09:56.774Z,11.80
2018-12-31T11:12:25.758Z,11.60
2018-12-31T11:14:54.730Z,11.60
2018-12-31T11:17:23.718Z,11.70
2018-12-31T11:19:52.695Z,11.80
2018-12-31T11:22:21.670Z,11.80
2018-12-31T11:24:50.658Z,11.80
2018-12-31T11:27:19.615Z,12.10
2018-12-31T11:29:48.600Z,12.10
2018-12-31T11:32:17.573Z,12.00
2018-12-31T11:34:46.555Z,12.20
2018-12-31T11:37:15.538Z,12.40
2018-12-31T11:39:44.504Z,12.50
2018-12-31T11:42:13.483Z,12.60
2018-12-31T11:44:42.454Z,12.60
2018-12-31T11:47:11.436Z,12.70
2018-12-31T11:49:40.399Z,12.50
2018-12-31T11:52:09.382Z,12.60
2018-12-31T11:54:39.341Z,12.90
2018-12-31T11:57:08.533Z,13.00
2018-12-31T11:59:37.529Z,13.10
2018-12-31T12:02:06.582Z,12.90
2018-12-31T12:04:35.539Z,13.10
2018-12-31T12:07:04.608Z,12.80
2018-12-31T12:09:33.558Z,13.10
2018-12-31T12:12:02.537Z,13.20
2018-12-31T12:14:31.519Z,13.10
2018-12-31T12:17:00.521Z,13.00
2018-12-31T12:19:29.484Z,13.20
2018-12-31T12:21:58.483Z,13.30
2018-12-31T12:24:27.459Z,13.40
2018-12-31T12:26:56.438Z,13.40
2018-12-31T12:29:25.403Z,13.30
2018-12-31T12:31:54.423Z,13.50
2018-12-31T12:34:23.386Z,13.60
2018-12-31T12:36:52.357Z,13.50
2018-12-31T12:39:21.342Z,13.60
2018-12-31T12:41:50.326Z,13.50
2018-12-31T12:44:19.322Z,13.40
2018-12-31T12:46:48.307Z,13.40
2018-12-31T12:49:17.283Z,13.40
2018-12-31T12:51:46.248Z,13.30
2018-12-31T12:54:15.230Z,13.40
2018-12-31T12:56:44.195Z,13.40
2018-12-31T12:59:13.179Z,13.40
2018-12-31T13:01:42.160Z,13.40
2018-12-31T13:04:11.126Z,13.30
2018-12-31T13:06:40.103Z,13.30
2018-12-31T13:09:09.081Z,13.40
2018-12-31T13:11:38.079Z,13.50
2018-12-31T13:14:07.036Z,13.40
2018-12-31T13:16:36.023Z,13.30
2018-12-31T13:19:05.090Z,13.20
2018-12-31T13:21:34.063Z,13.30
2018-12-31T13:24:03.099Z,13.20
2018-12-31T13:26:32.127Z,13.20
2018-12-31T13:29:01.343Z,13.40
2018-12-31T13:31:30.331Z,13.40
2018-12-31T13:33:59.303Z,13.50
2018-12-31T13:36:28.295Z,13.50
2018-12-31T13:38:57.259Z,13.40
2018-12-31T13:41:26.235Z,13.30
2018-12-31T13:43:55.200Z,13.30
2018-12-31T13:46:24.205Z,13.40
2018-12-31T13:48:53.159Z,13.40
2018-12-31T13:51:22.136Z,13.50
2018-12-31T13:53:51.478Z,13.20
2018-12-31T13:56:20.467Z,13.30
2018-12-31T13:58:49.440Z,13.30
2018-12-31T14:01:18.429Z,13.30
2018-12-31T14:03:47.379Z,13.10
2018-12-31T14:06:16.739Z,13.00
2018-12-31T14:08:45.702Z,12.90
2018-12-31T14:11:14.681Z,12.80
2018-12-31T14:13:43.654Z,12.80
2018-12-31T14:16:12.618Z,12.80
2018-12-31T14:18:42.179Z,12.80
2018-12-31T14:21:11.173Z,12.80
2018-12-31T14:23:40.158Z,12.80
2018-12-31T14:26:09.129Z,12.80
2018-12-31T14:28:38.127Z,12.80
2018-12-31T14:31:07.464Z,12.80
2018-12-31T14:33:36.446Z,12.90
2018-12-31T14:36:05.430Z,12.90
2018-12-31T14:38:35.351Z,12.60
2018-12-31T14:41:04.409Z,12.60
2018-12-31T14:43:33.463Z,12.60
2018-12-31T14:46:02.438Z,12.60
2018-12-31T14:48:31.492Z,12.60
2018-12-31T14:51:00.485Z,12.50
2018-12-31T14:53:29.518Z,12.60
2018-12-31T14:55:58.863Z,12.40
2018-12-31T14:58:27.862Z,12.50
2018-12-31T15:00:56.839Z,12.50
2018-12-31T15:03:25.832Z,12.50
2018-12-31T15:05:54.790Z,12.50
2018-12-31T15:08:23.779Z,12.60
2018-12-31T15:10:52.758Z,12.80
2018-12-31T15:13:21.775Z,12.90
2018-12-31T15:15:50.742Z,12.90
2018-12-31T15:18:20.008Z,12.90
2018-12-31T15:20:48.978Z,13.00
2018-12-31T15:23:17.970Z,13.00
2018-12-31T15:25:46.947Z,13.00
2018-12-31T15:28:15.944Z,13.10
2018-12-31T15:30:44.942Z,13.10
2018-12-31T15:33:14.298Z,13.10
2018-12-31T15:35:43.278Z,13.00
2018-12-31T15:38:12.324Z,12.90
2018-12-31T15:40:41.308Z,13.00
2018-12-31T15:43:10.298Z,13.00
2018-12-31T15:45:39.569Z,13.00
2018-12-31T15:48:08.538Z,13.10
2018-12-31T15:50:37.688Z,13.10
2018-12-31T15:53:06.746Z,13.10
2018-12-31T15:55:35.722Z,13.10
2018-12-31T15:58:04.899Z,13.10
2018-12-31T16:00:33.895Z,13.10
2018-12-31T16:03:02.905Z,13.00
2018-12-31T16:05:31.871Z,12.90
2018-12-31T16:08:00.857Z,12.80
2018-12-31T16:10:30.359Z,12.80
2018-12-31T16:12:59.378Z,12.90
2018-12-31T16:15:28.350Z,12.90
2018-12-31T16:17:57.363Z,12.80
2018-12-31T16:20:26.318Z,12.80
2018-12-31T16:22:55.818Z,12.80
2018-12-31T16:25:24.782Z,12.80
2018-12-31T16:27:53.770Z,12.70
2018-12-31T16:30:22.747Z,12.60
2018-12-31T16:32:51.723Z,12.60
2018-12-31T16:35:21.334Z,12.60
2018-12-31T16:37:50.372Z,12.60
2018-12-31T16:40:19.358Z,12.60
2018-12-31T16:42:48.319Z,12.60
2018-12-31T16:45:17.298Z,12.60
2018-12-31T16:47:46.766Z,12.70
2018-12-31T16:50:15.766Z,12.60
2018-12-31T16:52:44.751Z,12.60
2018-12-31T16:55:13.816Z,12.40
2018-12-31T16:57:42.786Z,12.40
2018-12-31T17:00:12.067Z,12.30
2018-12-31T17:02:41.047Z,12.40
2018-12-31T17:05:10.023Z,12.20
2018-12-31T17:07:39.007Z,12.20
2018-12-31T17:10:09.814Z,12.40
2018-12-31T17:12:39.294Z,12.40
2018-12-31T17:15:08.363Z,12.40
2018-12-31T17:17:37.355Z,12.40
2018-12-31T17:20:06.871Z,12.40
2018-12-31T17:22:35.862Z,12.50
2018-12-31T17:25:05.372Z,12.40
2018-12-31T17:27:34.348Z,12.40
2018-12-31T17:30:03.414Z,12.40
2018-12-31T17:32:32.403Z,12.20
2018-12-31T17:35:01.461Z,12.30
2018-12-31T17:37:30.961Z,12.20
2018-12-31T17:39:59.957Z,12.30
2018-12-31T17:42:28.944Z,12.20
2018-12-31T17:44:57.942Z,12.20
2018-12-31T17:47:26.913Z,12.20
2018-12-31T17:49:55.900Z,12.30
2018-12-31T17:52:24.872Z,12.30
2018-12-31T17:54:53.878Z,12.30
2018-12-31T17:57:22.893Z,12.30
2018-12-31T17:59:51.942Z,12.20
2018-12-31T18:02:20.910Z,12.10
2018-12-31T18:04:49.940Z,12.10
2018-12-31T18:07:18.915Z,12.10
2018-12-31T18:09:48.007Z,12.20
2018-12-31T18:12:16.996Z,12.20
2018-12-31T18:14:45.982Z,12.20
2018-12-31T18:17:15.046Z,12.20
2018-12-31T18:19:44.062Z,12.30
2018-12-31T18:22:13.051Z,12.30
2018-12-31T18:24:54.623Z,12.30
2018-12-31T18:27:23.589Z,12.20
2018-12-31T18:29:52.606Z,12.10
2018-12-31T18:32:21.575Z,12.10
2018-12-31T18:34:50.586Z,12.10
2018-12-31T18:37:19.562Z,12.20
2018-12-31T18:39:49.382Z,12.30
2018-12-31T18:42:18.983Z,12.20
2018-12-31T18:44:47.974Z,11.90
2018-12-31T18:47:17.068Z,12.10
2018-12-31T18:49:46.057Z,12.10
2018-12-31T18:52:15.032Z,12.20
2018-12-31T18:54:44.020Z,12.10
2018-12-31T18:57:13.020Z,12.10
2018-12-31T18:59:42.059Z,12.10
2018-12-31T19:02:11.060Z,12.00
2018-12-31T19:04:40.046Z,12.10
2018-12-31T19:07:09.100Z,12.00
2018-12-31T19:09:38.079Z,12.00
2018-12-31T19:12:07.050Z,12.00
2018-12-31T19:14:36.031Z,12.00
2018-12-31T19:17:05.199Z,11.90
2018-12-31T19:19:34.174Z,12.10
2018-12-31T19:22:03.144Z,12.10
2018-12-31T19:24:32.155Z,12.00
2018-12-31T19:27:01.154Z,12.10
2018-12-31T19:29:30.605Z,12.00
2018-12-31T19:31:59.594Z,12.10
2018-12-31T19:34:28.649Z,12.10
2018-12-31T19:36:57.660Z,12.20
2018-12-31T19:39:26.628Z,12.20
2018-12-31T19:41:55.915Z,12.10
2018-12-31T19:44:24.882Z,12.10
2018-12-31T19:46:53.890Z,12.10
2018-12-31T19:49:22.865Z,12.20
2018-12-31T19:51:51.877Z,12.20
2018-12-31T19:54:20.851Z,12.20
2018-12-31T19:56:49.832Z,12.20
2018-12-31T19:59:18.804Z,12.30
2018-12-31T20:01:47.791Z,12.30
2018-12-31T20:04:16.758Z,12.20
2018-12-31T20:06:45.755Z,12.20
2018-12-31T20:09:14.745Z,12.20
2018-12-31T20:11:43.787Z,12.10
2018-12-31T20:14:12.773Z,12.20
2018-12-31T20:16:41.750Z,12.20
2018-12-31T20:19:10.753Z,12.20
2018-12-31T20:21:39.725Z,12.20
2018-12-31T20:24:08.728Z,12.20
2018-12-31T20:26:37.706Z,12.20
2018-12-31T20:29:06.685Z,12.10
2018-12-31T20:31:35.668Z,12.10
2018-12-31T20:34:05.041Z,12.20
2018-12-31T20:36:34.086Z,12.20
2018-12-31T20:39:04.758Z,12.20
2018-12-31T20:41:33.745Z,12.30
2018-12-31T20:44:02.788Z,12.20
2018-12-31T20:46:31.815Z,12.30
2018-12-31T20:49:00.784Z,12.30
2018-12-31T20:51:29.785Z,12.20
2018-12-31T20:53:58.753Z,12.20
2018-12-31T20:56:27.747Z,12.20
2018-12-31T20:58:56.722Z,12.20
2018-12-31T21:01:26.374Z,12.20
2018-12-31T21:03:55.358Z,12.20
2018-12-31T21:06:24.327Z,12.20
2018-12-31T21:08:53.327Z,12.20
2018-12-31T21:11:22.289Z,12.20
2018-12-31T21:13:51.559Z,12.00
2018-12-31T21:16:20.552Z,12.10
2018-12-31T21:18:49.600Z,12.10
2018-12-31T21:21:18.588Z,12.00
2018-12-31T21:23:47.565Z,12.10
2018-12-31T21:26:16.553Z,12.10
2018-12-31T21:28:45.528Z,12.10
2018-12-31T21:31:14.631Z,11.90
2018-12-31T21:33:43.623Z,11.90
2018-12-31T21:36:12.584Z,12.00
2018-12-31T21:38:41.582Z,12.10
2018-12-31T21:41:10.557Z,12.10
2018-12-31T21:43:39.542Z,12.10
2018-12-31T21:46:08.523Z,12.10
2018-12-31T21:48:37.534Z,12.20
2018-12-31T21:51:06.514Z,12.20
2018-12-31T21:53:35.885Z,12.20
2018-12-31T21:56:04.862Z,12.20
2018-12-31T21:58:33.847Z,12.20
2018-12-31T22:01:02.815Z,12.20
2018-12-31T22:03:31.813Z,12.20
2018-12-31T22:06:00.815Z,12.20
2018-12-31T22:08:29.782Z,12.10
2018-12-31T22:10:58.830Z,12.10
2018-12-31T22:13:27.827Z,12.20
2018-12-31T22:15:56.799Z,12.10
2018-12-31T22:18:25.798Z,12.20
2018-12-31T22:20:54.842Z,12.20
2018-12-31T22:23:23.822Z,12.20
2018-12-31T22:25:52.817Z,12.20
2018-12-31T22:28:21.842Z,12.20
2018-12-31T22:30:50.799Z,12.10
2018-12-31T22:33:19.816Z,12.20
2018-12-31T22:35:48.797Z,12.20
2018-12-31T22:38:17.778Z,12.20
2018-12-31T22:40:46.754Z,12.20
2018-12-31T22:43:15.777Z,12.10
2018-12-31T22:45:45.298Z,12.20
2018-12-31T22:48:14.298Z,12.10
2018-12-31T22:50:43.391Z,12.10
2018-12-31T22:53:12.390Z,12.10
2018-12-31T22:55:41.363Z,12.10
2018-12-31T22:58:10.357Z,12.20
2018-12-31T23:00:39.774Z,12.10
2018-12-31T23:03:08.774Z,12.10
2018-12-31T23:05:37.819Z,12.00
2018-12-31T23:08:06.837Z,11.90
2018-12-31T23:10:35.881Z,11.80
2018-12-31T23:13:04.888Z,11.80
2018-12-31T23:15:34.304Z,11.80
2018-12-31T23:18:03.293Z,11.80
2018-12-31T23:20:32.294Z,11.80
2018-12-31T23:23:01.708Z,11.90
2018-12-31T23:25:30.688Z,11.80
2018-12-31T23:27:59.687Z,11.90
2018-12-31T23:30:28.667Z,11.90
2018-12-31T23:32:57.667Z,11.80
2018-12-31T23:35:27.138Z,11.90
2018-12-31T23:37:56.130Z,11.90
2018-12-31T23:40:25.114Z,11.90
2018-12-31T23:42:54.101Z,11.90
2018-12-31T23:45:23.082Z,11.90
2018-12-31T23:47:52.455Z,12.00
2018-12-31T23:50:21.449Z,12.00
2018-12-31T23:52:50.448Z,12.00
2018-12-31T23:55:19.522Z,12.00
2018-12-31T23:57:48.535Z,12.00
